Time;durP1;ratioP1;P1;durP2;ratioP2;P2;SDS_P1;SDS_P2;PMS_P1;PMS_P2;Temp;Humidity;BMP_temperature;BMP_pressure;BME280_temperature;BME280_humidity;BME280_pressure;Samples;Min_cycle;Max_cycle;Signal;HPM_P1;HPM_P2
2022/11/26 00:00:43;;;;;;;;;;;;;;;39.93;nan;102179.91;5069755;28;19928;-57
2022/11/26 00:03:10;;;;;;;;;;;;;;;39.54;nan;102187.84;5066763;28;19932;-57
2022/11/26 00:05:38;;;;;;;;;;;;;;;39.40;nan;102187.25;5061396;28;19920;-59
2022/11/26 00:08:13;;;;;;;;;;;;;;;39.16;nan;102186.38;5061641;28;19913;-58
2022/11/26 00:10:39;;;;;;;;;;;;;;;39.08;nan;102185.66;5063086;28;20379;-58
2022/11/26 00:13:13;;;;;;;;;;;;;;;38.94;nan;102180.13;5064877;28;19913;-58
2022/11/26 00:15:39;;;;;;;;;;;;;;;38.56;nan;102185.03;5067136;28;20058;-58
2022/11/26 00:18:05;;;;;;;;;;;;;;;38.33;nan;102182.84;5064900;28;19988;-57
2022/11/26 00:20:32;;;;;;;;;;;;;;;38.15;nan;102179.38;5064874;28;19931;-59
2022/11/26 00:23:01;;;;;;;;;;;;;;;37.99;nan;102188.44;5063490;28;19917;-59
2022/11/26 00:25:31;;;;;;;;;;;;;;;37.99;nan;102174.22;5064374;28;19931;-57
2022/11/26 00:27:58;;;;;;;;;;;;;;;37.79;nan;102177.66;5067047;28;19923;-57
2022/11/26 00:30:25;;;;;;;;;;;;;;;37.57;nan;102175.38;5057889;28;20371;-57
2022/11/26 00:32:52;;;;;;;;;;;;;;;37.40;nan;102177.09;5064698;28;19920;-58
2022/11/26 00:35:18;;;;;;;;;;;;;;;37.37;nan;102169.44;5064315;28;19963;-57
2022/11/26 00:37:55;;;;;;;;;;;;;;;37.47;nan;102169.34;5063606;28;19920;-57
2022/11/26 00:40:23;;;;;;;;;;;;;;;37.30;nan;102173.09;5062064;28;19967;-58
2022/11/26 00:42:49;;;;;;;;;;;;;;;36.90;nan;102183.00;5066264;28;19923;-58
2022/11/26 00:45:20;;;;;;;;;;;;;;;36.99;nan;102174.09;5061193;28;20321;-59
2022/11/26 00:47:47;;;;;;;;;;;;;;;36.90;nan;102183.81;5034423;28;19944;-58
2022/11/26 00:50:14;;;;;;;;;;;;;;;36.92;nan;102181.38;5061284;28;19924;-58
2022/11/26 00:52:41;;;;;;;;;;;;;;;36.74;nan;102174.13;5078487;28;19931;-57
2022/11/26 00:55:18;;;;;;;;;;;;;;;36.65;nan;102168.94;5079547;28;19930;-57
2022/11/26 00:57:44;;;;;;;;;;;;;;;36.59;nan;102179.03;5075173;28;19920;-58
2022/11/26 01:00:15;;;;;;;;;;;;;;;36.43;nan;102179.50;5080964;28;19924;-57
2022/11/26 01:02:41;;;;;;;;;;;;;;;36.27;nan;102177.09;5083860;28;20032;-57
2022/11/26 01:05:07;;;;;;;;;;;;;;;36.13;nan;102171.44;5083512;28;19920;-57
2022/11/26 01:07:34;;;;;;;;;;;;;;;35.95;nan;102173.47;5082531;28;19920;-57
2022/11/26 01:10:00;;;;;;;;;;;;;;;35.63;nan;102184.75;5081049;28;19959;-57
2022/11/26 01:12:26;;;;;;;;;;;;;;;35.65;nan;102183.13;5080575;28;19927;-57
2022/11/26 01:14:53;;;;;;;;;;;;;;;35.59;nan;102179.09;5081010;28;19920;-57
2022/11/26 01:17:19;;;;;;;;;;;;;;;35.45;nan;102179.06;5082438;28;19939;-57
2022/11/26 01:19:45;;;;;;;;;;;;;;;35.39;nan;102180.69;5069922;28;20019;-57
2022/11/26 01:22:22;;;;;;;;;;;;;;;35.30;nan;102178.19;5086221;28;19978;-57
2022/11/26 01:24:48;;;;;;;;;;;;;;;35.40;nan;102177.44;5073876;28;20314;-57
2022/11/26 01:27:14;;;;;;;;;;;;;;;35.28;nan;102179.78;5082184;28;19924;-57
2022/11/26 01:29:41;;;;;;;;;;;;;;;35.27;nan;102179.00;5085160;28;19924;-57
2022/11/26 01:32:09;;;;;;;;;;;;;;;35.22;nan;102189.88;5085536;28;19923;-57
2022/11/26 01:34:35;;;;;;;;;;;;;;;35.21;nan;102174.13;5083124;28;19935;-57
2022/11/26 01:37:01;;;;;;;;;;;;;;;35.14;nan;102177.72;5083984;28;19920;-58
2022/11/26 01:39:28;;;;;;;;;;;;;;;35.09;nan;102176.09;5082319;28;19955;-58
2022/11/26 01:41:54;;;;;;;;;;;;;;;34.95;nan;102184.53;5080016;28;19920;-57
2022/11/26 01:44:23;;;;;;;;;;;;;;;34.77;nan;102190.06;5082331;28;20393;-58
2022/11/26 01:46:50;;;;;;;;;;;;;;;34.61;nan;102186.75;5076718;28;19920;-57
2022/11/26 01:49:16;;;;;;;;;;;;;;;34.56;nan;102186.31;5076342;28;20428;-57
2022/11/26 01:51:45;;;;;;;;;;;;;;;34.53;nan;102179.47;5111592;27;20283;-57
2022/11/26 01:54:12;;;;;;;;;;;;;;;34.47;nan;102181.84;5079226;28;19978;-57
2022/11/26 01:56:49;;;;;;;;;;;;;;;34.54;nan;102187.53;5075352;28;19974;-57
2022/11/26 01:59:18;;;;;;;;;;;;;;;34.50;nan;102186.72;5071522;28;19920;-57
2022/11/26 02:01:44;;;;;;;;;;;;;;;34.33;nan;102187.38;5078006;28;19924;-57
2022/11/26 02:04:31;;;;;;;;;;;;;;;34.04;nan;102189.16;5075609;28;19994;-57
2022/11/26 02:06:58;;;;;;;;;;;;;;;34.17;nan;102178.38;5074911;28;20038;-57
2022/11/26 02:09:25;;;;;;;;;;;;;;;34.21;nan;102185.66;5075959;28;20402;-57
2022/11/26 02:11:51;;;;;;;;;;;;;;;34.41;nan;102171.31;5076762;28;19924;-57
2022/11/26 02:14:20;;;;;;;;;;;;;;;34.46;nan;102168.91;5075261;28;20449;-57
2022/11/26 02:16:49;;;;;;;;;;;;;;;34.24;nan;102178.41;5076752;28;19920;-58
2022/11/26 02:19:29;;;;;;;;;;;;;;;34.15;nan;102172.31;5075290;28;20394;-57
2022/11/26 02:22:02;;;;;;;;;;;;;;;33.98;nan;102178.63;5074473;28;20007;-57
2022/11/26 02:24:49;;;;;;;;;;;;;;;33.97;nan;102182.66;5075419;28;19921;-57
2022/11/26 02:27:16;;;;;;;;;;;;;;;33.89;nan;102181.78;5073717;28;19920;-57
2022/11/26 02:30:00;;;;;;;;;;;;;;;33.91;nan;102185.81;5072951;28;19947;-57
2022/11/26 02:32:47;;;;;;;;;;;;;;;33.86;nan;102191.84;5073335;28;20417;-58
2022/11/26 02:35:13;;;;;;;;;;;;;;;33.86;nan;102191.84;5072070;28;19921;-57
2022/11/26 02:37:53;;;;;;;;;;;;;;;33.64;nan;102195.63;5072648;28;20657;-57
2022/11/26 02:40:20;;;;;;;;;;;;;;;33.61;nan;102202.03;5074034;28;19943;-57
2022/11/26 02:42:47;;;;;;;;;;;;;;;33.60;nan;102203.25;5074388;28;19919;-57
2022/11/26 02:45:22;;;;;;;;;;;;;;;33.48;nan;102203.50;5072226;28;20394;-58
2022/11/26 02:47:51;;;;;;;;;;;;;;;33.45;nan;102204.28;5079189;28;19920;-57
2022/11/26 02:50:21;;;;;;;;;;;;;;;33.42;nan;102205.06;5077979;28;19928;-57
2022/11/26 02:52:47;;;;;;;;;;;;;;;33.22;nan;102207.22;5080104;28;19920;-57
2022/11/26 02:55:14;;;;;;;;;;;;;;;33.20;nan;102213.22;5082091;28;19920;-58
2022/11/26 02:57:44;;;;;;;;;;;;;;;33.20;nan;102210.41;5077053;28;19928;-57
2022/11/26 03:00:11;;;;;;;;;;;;;;;33.17;nan;102205.53;5076819;28;19946;-57
2022/11/26 03:03:00;;;;;;;;;;;;;;;33.17;nan;102219.63;5076637;28;20506;-57
2022/11/26 03:05:30;;;;;;;;;;;;;;;33.20;nan;102221.69;5069951;28;20023;-57
2022/11/26 03:07:57;;;;;;;;;;;;;;;33.00;nan;102217.41;5075552;28;20382;-57
2022/11/26 03:10:25;;;;;;;;;;;;;;;32.91;nan;102220.53;5107688;27;20367;-57
2022/11/26 03:12:51;;;;;;;;;;;;;;;32.86;nan;102225.69;5075346;28;19974;-57
2022/11/26 03:15:18;;;;;;;;;;;;;;;32.82;nan;102222.00;5075452;28;19978;-58
2022/11/26 03:17:44;;;;;;;;;;;;;;;32.82;nan;102222.78;5076857;28;19920;-57
2022/11/26 03:20:10;;;;;;;;;;;;;;;32.68;nan;102223.41;5075749;28;20264;-57
2022/11/26 03:22:37;;;;;;;;;;;;;;;32.55;nan;102226.81;5075012;28;20325;-56
2022/11/26 03:25:04;;;;;;;;;;;;;;;32.49;nan;102226.31;5074917;28;20342;-57
2022/11/26 03:27:30;;;;;;;;;;;;;;;32.46;nan;102225.06;5076659;28;19928;-57
2022/11/26 03:29:57;;;;;;;;;;;;;;;32.52;nan;102231.19;5074541;28;19968;-57
2022/11/26 03:32:23;;;;;;;;;;;;;;;32.44;nan;102230.25;5074867;28;19973;-57
2022/11/26 03:34:50;;;;;;;;;;;;;;;32.53;nan;102227.19;5075050;28;20291;-57
2022/11/26 03:37:16;;;;;;;;;;;;;;;32.40;nan;102228.59;5074926;28;19916;-58
2022/11/26 03:39:43;;;;;;;;;;;;;;;32.21;nan;102235.09;5075130;28;20431;-58
2022/11/26 03:42:09;;;;;;;;;;;;;;;32.30;nan;102234.84;5071983;28;19920;-58
2022/11/26 03:44:35;;;;;;;;;;;;;;;32.12;nan;102229.72;5075716;28;19973;-58
2022/11/26 03:47:01;;;;;;;;;;;;;;;32.12;nan;102234.53;5076657;28;19936;-58
2022/11/26 03:49:28;;;;;;;;;;;;;;;32.11;nan;102244.97;5077302;28;20445;-58
2022/11/26 03:51:54;;;;;;;;;;;;;;;32.12;nan;102240.97;5076474;28;20300;-58
2022/11/26 03:54:20;;;;;;;;;;;;;;;32.15;nan;102245.84;5076535;28;20044;-58
2022/11/26 03:56:46;;;;;;;;;;;;;;;32.03;nan;102251.66;5075666;28;19924;-58
2022/11/26 03:59:13;;;;;;;;;;;;;;;31.92;nan;102253.47;5076523;28;19927;-57
2022/11/26 04:01:39;;;;;;;;;;;;;;;32.03;nan;102254.47;5078220;28;19947;-58
2022/11/26 04:04:05;;;;;;;;;;;;;;;32.10;nan;102253.78;5076541;28;19924;-58
2022/11/26 04:06:32;;;;;;;;;;;;;;;32.00;nan;102251.59;5076278;28;19925;-57
2022/11/26 04:08:58;;;;;;;;;;;;;;;32.05;nan;102248.47;5076326;28;19971;-57
2022/11/26 04:11:24;;;;;;;;;;;;;;;32.10;nan;102243.34;5077118;28;19939;-57
2022/11/26 04:13:50;;;;;;;;;;;;;;;31.93;nan;102243.03;5077254;28;19928;-57
2022/11/26 04:16:16;;;;;;;;;;;;;;;31.86;nan;102244.53;5069330;28;19924;-57
2022/11/26 04:18:43;;;;;;;;;;;;;;;31.76;nan;102241.50;5079621;28;19924;-58
2022/11/26 04:21:09;;;;;;;;;;;;;;;31.70;nan;102251.41;5079325;28;19954;-59
2022/11/26 04:23:35;;;;;;;;;;;;;;;31.78;nan;102239.16;5079946;28;19920;-59
2022/11/26 04:26:02;;;;;;;;;;;;;;;31.42;nan;102251.66;5078484;28;19952;-59
2022/11/26 04:28:28;;;;;;;;;;;;;;;31.45;nan;102240.50;5078545;28;19923;-58
2022/11/26 04:30:54;;;;;;;;;;;;;;;31.66;nan;102250.53;5086690;28;19925;-58
2022/11/26 04:33:20;;;;;;;;;;;;;;;31.56;nan;102252.75;5084127;28;19920;-58
2022/11/26 04:35:47;;;;;;;;;;;;;;;31.31;nan;102236.59;5082627;28;19953;-56
2022/11/26 04:38:13;;;;;;;;;;;;;;;31.42;nan;102244.06;5113967;27;19931;-56
2022/11/26 04:40:39;;;;;;;;;;;;;;;31.51;nan;102233.41;5081186;28;19912;-58
2022/11/26 04:43:06;;;;;;;;;;;;;;;31.61;nan;102236.81;5085891;28;19920;-58
2022/11/26 04:45:32;;;;;;;;;;;;;;;31.56;nan;102230.28;5085055;28;19926;-57
2022/11/26 04:47:58;;;;;;;;;;;;;;;31.56;nan;102241.53;5075144;28;19928;-57
2022/11/26 04:50:24;;;;;;;;;;;;;;;31.57;nan;102242.31;5075154;28;20016;-56
2022/11/26 04:52:51;;;;;;;;;;;;;;;31.28;nan;102235.34;5067164;28;20379;-56
2022/11/26 04:55:17;;;;;;;;;;;;;;;31.35;nan;102241.09;5064548;28;20005;-56
2022/11/26 04:57:47;;;;;;;;;;;;;;;31.21;nan;102232.38;5048192;28;19927;-57
2022/11/26 05:00:14;;;;;;;;;;;;;;;31.20;nan;102230.75;5066630;28;19927;-56
2022/11/26 05:02:40;;;;;;;;;;;;;;;31.17;nan;102242.69;5068625;28;19920;-57
2022/11/26 05:05:07;;;;;;;;;;;;;;;31.21;nan;102240.81;5049317;28;19920;-56
2022/11/26 05:07:34;;;;;;;;;;;;;;;31.11;nan;102247.00;5061040;28;20285;-57
2022/11/26 05:10:00;;;;;;;;;;;;;;;31.10;nan;102246.19;5059498;28;19925;-56
2022/11/26 05:12:27;;;;;;;;;;;;;;;31.03;nan;102239.56;5062948;28;19951;-56
2022/11/26 05:14:53;;;;;;;;;;;;;;;30.79;nan;102246.28;5061901;28;19982;-57
2022/11/26 05:17:19;;;;;;;;;;;;;;;30.69;nan;102247.66;5066511;28;20004;-57
2022/11/26 05:19:45;;;;;;;;;;;;;;;30.87;nan;102243.25;5068943;28;19931;-57
2022/11/26 05:22:11;;;;;;;;;;;;;;;31.06;nan;102247.25;5065203;28;19920;-57
2022/11/26 05:24:38;;;;;;;;;;;;;;;30.65;nan;102253.19;5066790;28;19943;-56
2022/11/26 05:27:04;;;;;;;;;;;;;;;30.62;nan;102248.31;5046323;28;19954;-57
2022/11/26 05:29:31;;;;;;;;;;;;;;;30.71;nan;102242.50;5065489;28;20379;-57
2022/11/26 05:31:58;;;;;;;;;;;;;;;30.37;nan;102250.50;5067364;28;19917;-57
2022/11/26 05:34:24;;;;;;;;;;;;;;;30.39;nan;102244.50;5061289;28;19921;-56
2022/11/26 05:36:50;;;;;;;;;;;;;;;30.35;nan;102254.84;5062016;28;19921;-57
2022/11/26 05:39:17;;;;;;;;;;;;;;;30.41;nan;102241.34;5063089;28;20386;-56
2022/11/26 05:41:43;;;;;;;;;;;;;;;30.28;nan;102243.41;5060042;28;19920;-57
2022/11/26 05:44:09;;;;;;;;;;;;;;;30.25;nan;102241.34;5059979;28;20010;-57
2022/11/26 05:46:39;;;;;;;;;;;;;;;30.48;nan;102241.50;5056982;28;19921;-57
2022/11/26 05:49:05;;;;;;;;;;;;;;;30.50;nan;102239.13;5063094;28;19920;-57
2022/11/26 05:51:32;;;;;;;;;;;;;;;30.64;nan;102242.31;5069107;28;19951;-61
2022/11/26 05:53:58;;;;;;;;;;;;;;;30.56;nan;102240.50;5079891;28;19924;-57
2022/11/26 05:56:27;;;;;;;;;;;;;;;30.66;nan;102243.56;5079038;28;20471;-57
2022/11/26 05:58:54;;;;;;;;;;;;;;;30.62;nan;102253.09;5080011;28;20011;-57
2022/11/26 06:01:20;;;;;;;;;;;;;;;30.69;nan;102244.84;5083471;28;19924;-57
2022/11/26 06:03:46;;;;;;;;;;;;;;;30.62;nan;102244.69;5085587;28;19920;-57
2022/11/26 06:06:13;;;;;;;;;;;;;;;30.48;nan;102241.50;5083896;28;19920;-57
2022/11/26 06:08:39;;;;;;;;;;;;;;;30.43;nan;102233.38;5080148;28;19920;-57
2022/11/26 06:11:05;;;;;;;;;;;;;;;30.38;nan;102234.47;5083296;28;20041;-57
2022/11/26 06:13:31;;;;;;;;;;;;;;;30.41;nan;102233.75;5081215;28;19920;-57
2022/11/26 06:15:58;;;;;;;;;;;;;;;30.37;nan;102227.22;5079228;28;19923;-57
2022/11/26 06:18:24;;;;;;;;;;;;;;;30.27;nan;102220.16;5079161;28;19927;-57
2022/11/26 06:20:50;;;;;;;;;;;;;;;30.22;nan;102217.66;5081237;28;19917;-57
2022/11/26 06:23:17;;;;;;;;;;;;;;;30.10;nan;102214.94;5082597;28;19916;-56
2022/11/26 06:25:43;;;;;;;;;;;;;;;30.06;nan;102203.63;5079475;28;19917;-57
2022/11/26 06:28:09;;;;;;;;;;;;;;;30.13;nan;102202.16;5079243;28;19973;-57
2022/11/26 06:30:36;;;;;;;;;;;;;;;30.06;nan;102200.81;5079501;28;19916;-57
2022/11/26 06:33:02;;;;;;;;;;;;;;;30.13;nan;102197.38;5082570;28;19939;-57
2022/11/26 06:35:28;;;;;;;;;;;;;;;30.28;nan;102193.75;5080792;28;20012;-57
2022/11/26 06:37:54;;;;;;;;;;;;;;;30.11;nan;102190.50;5071638;28;19927;-57
2022/11/26 06:40:21;;;;;;;;;;;;;;;30.03;nan;102195.91;5072453;28;19920;-57
2022/11/26 06:42:51;;;;;;;;;;;;;;;29.93;nan;102192.84;5072150;28;19921;-55
2022/11/26 06:45:17;;;;;;;;;;;;;;;29.87;nan;102195.09;5071448;28;19935;-58
2022/11/26 06:47:45;;;;;;;;;;;;;;;29.89;nan;102186.31;5072050;28;20317;-57
2022/11/26 06:50:11;;;;;;;;;;;;;;;29.99;nan;102191.41;5069235;28;19950;-57
2022/11/26 06:52:39;;;;;;;;;;;;;;;29.90;nan;102179.53;5062029;28;21210;-56
2022/11/26 06:55:05;;;;;;;;;;;;;;;29.82;nan;102183.34;5060025;28;19933;-56
2022/11/26 06:57:31;;;;;;;;;;;;;;;29.85;nan;102179.81;5057842;28;20387;-57
2022/11/26 06:59:57;;;;;;;;;;;;;;;29.89;nan;102181.53;5067502;28;19921;-57
2022/11/26 07:02:24;;;;;;;;;;;;;;;29.89;nan;102175.13;5064722;28;19931;-57
2022/11/26 07:04:50;;;;;;;;;;;;;;;29.93;nan;102181.63;5062812;28;20567;-57
2022/11/26 07:07:16;;;;;;;;;;;;;;;29.83;nan;102174.59;5063795;28;19921;-57
2022/11/26 07:09:42;;;;;;;;;;;;;;;29.62;nan;102188.81;5062155;28;19925;-58
2022/11/26 07:12:09;;;;;;;;;;;;;;;29.26;nan;102186.19;5058540;28;20032;-57
2022/11/26 07:14:35;;;;;;;;;;;;;;;29.50;nan;102180.50;5062853;28;19917;-57
2022/11/26 07:17:01;;;;;;;;;;;;;;;29.71;nan;102174.66;5063211;28;20093;-58
2022/11/26 07:19:28;;;;;;;;;;;;;;;29.81;nan;102178.94;5061319;28;19921;-58
2022/11/26 07:21:54;;;;;;;;;;;;;;;29.65;nan;102170.50;5062039;28;20397;-58
2022/11/26 07:24:20;;;;;;;;;;;;;;;29.60;nan;102174.34;5059532;28;20007;-58
2022/11/26 07:26:46;;;;;;;;;;;;;;;29.55;nan;102159.81;5061912;28;19929;-57
2022/11/26 07:29:13;;;;;;;;;;;;;;;29.45;nan;102166.75;5071341;28;19960;-57
2022/11/26 07:31:40;;;;;;;;;;;;;;;29.55;nan;102168.22;5056927;28;19921;-57
2022/11/26 07:34:07;;;;;;;;;;;;;;;29.73;nan;102153.50;5068609;28;20498;-57
2022/11/26 07:36:33;;;;;;;;;;;;;;;29.78;nan;102150.41;5064468;28;20436;-57
2022/11/26 07:39:00;;;;;;;;;;;;;;;29.54;nan;102153.41;5061072;28;19920;-57
2022/11/26 07:41:27;;;;;;;;;;;;;;;29.62;nan;102155.19;5072967;28;19921;-57
2022/11/26 07:43:54;;;;;;;;;;;;;;;29.64;nan;102152.88;5070855;28;19963;-58
2022/11/26 07:46:22;;;;;;;;;;;;;;;29.50;nan;102146.06;5046681;28;20032;-58
2022/11/26 07:48:49;;;;;;;;;;;;;;;29.52;nan;102138.13;5065293;28;19923;-58
2022/11/26 07:51:21;;;;;;;;;;;;;;;29.60;nan;102140.75;5079048;28;19927;-57
2022/11/26 07:53:48;;;;;;;;;;;;;;;29.60;nan;102129.53;5079180;28;19920;-58
2022/11/26 07:56:14;;;;;;;;;;;;;;;29.59;nan;102127.91;5076364;28;19916;-58
2022/11/26 07:58:40;;;;;;;;;;;;;;;29.50;nan;102130.09;5074759;28;19928;-58
2022/11/26 08:01:07;;;;;;;;;;;;;;;29.34;nan;102129.22;5076036;28;19967;-58
2022/11/26 08:03:36;;;;;;;;;;;;;;;29.30;nan;102119.91;5092177;28;19924;-57
2022/11/26 08:06:04;;;;;;;;;;;;;;;29.28;nan;102120.28;5081119;28;19920;-57
2022/11/26 08:08:32;;;;;;;;;;;;;;;29.13;nan;102116.25;5084840;28;19927;-58
2022/11/26 08:10:58;;;;;;;;;;;;;;;29.27;nan;102115.84;5087163;28;19920;-58
2022/11/26 08:13:24;;;;;;;;;;;;;;;29.34;nan;102112.41;5077258;28;20003;-58
2022/11/26 08:15:50;;;;;;;;;;;;;;;29.34;nan;102115.22;5091223;28;19920;-57
2022/11/26 08:18:17;;;;;;;;;;;;;;;29.32;nan;102107.16;5079876;28;19963;-58
2022/11/26 08:20:43;;;;;;;;;;;;;;;29.14;nan;102103.88;5086507;28;19920;-58
2022/11/26 08:23:09;;;;;;;;;;;;;;;29.09;nan;102106.13;5079437;28;19921;-58
2022/11/26 08:25:36;;;;;;;;;;;;;;;29.02;nan;102103.94;5091822;28;20328;-58
2022/11/26 08:28:02;;;;;;;;;;;;;;;28.98;nan;102096.63;5080804;28;19931;-58
2022/11/26 08:30:28;;;;;;;;;;;;;;;28.93;nan;102099.69;5084990;28;19981;-58
2022/11/26 08:32:54;;;;;;;;;;;;;;;28.77;nan;102092.00;5086767;28;19924;-58
2022/11/26 08:35:21;;;;;;;;;;;;;;;28.86;nan;102100.28;5083687;28;19920;-58
2022/11/26 08:37:47;;;;;;;;;;;;;;;28.74;nan;102091.91;5090486;28;20298;-58
2022/11/26 08:40:13;;;;;;;;;;;;;;;28.50;nan;102099.19;5079950;28;20001;-57
2022/11/26 08:42:39;;;;;;;;;;;;;;;28.43;nan;102090.59;5084336;28;20027;-58
2022/11/26 08:45:06;;;;;;;;;;;;;;;28.76;nan;102086.78;5092887;28;19916;-58
2022/11/26 08:47:32;;;;;;;;;;;;;;;28.71;nan;102087.81;5078138;28;20331;-57
2022/11/26 08:49:58;;;;;;;;;;;;;;;28.53;nan;102090.09;5089543;28;20294;-57
2022/11/26 08:52:25;;;;;;;;;;;;;;;28.32;nan;102091.44;5073801;28;19920;-57
2022/11/26 08:54:51;;;;;;;;;;;;;;;28.27;nan;102087.72;5074248;28;20023;-58
2022/11/26 08:57:17;;;;;;;;;;;;;;;28.44;nan;102092.22;5074312;28;20046;-57
2022/11/26 08:59:44;;;;;;;;;;;;;;;28.54;nan;102086.13;5073287;28;19924;-58
2022/11/26 09:02:10;;;;;;;;;;;;;;;28.54;nan;102091.72;5074430;28;20291;-57
2022/11/26 09:04:37;;;;;;;;;;;;;;;28.69;nan;102097.75;5071837;28;19916;-57
2022/11/26 09:07:03;;;;;;;;;;;;;;;28.65;nan;102094.03;5067951;28;19994;-57
2022/11/26 09:09:29;;;;;;;;;;;;;;;28.64;nan;102098.81;5063298;28;20319;-57
2022/11/26 09:11:56;;;;;;;;;;;;;;;28.44;nan;102103.41;5073949;28;20413;-57
2022/11/26 09:14:24;;;;;;;;;;;;;;;28.40;nan;102108.09;5054369;28;21351;-57
2022/11/26 09:16:51;;;;;;;;;;;;;;;28.36;nan;102107.16;5051770;28;20012;-58
2022/11/26 09:19:17;;;;;;;;;;;;;;;28.37;nan;102111.59;5054205;28;19952;-57
2022/11/26 09:21:44;;;;;;;;;;;;;;;28.16;nan;102108.09;5057891;28;20294;-57
2022/11/26 09:24:11;;;;;;;;;;;;;;;28.19;nan;102099.84;5055799;28;19962;-57
2022/11/26 09:26:37;;;;;;;;;;;;;;;28.17;nan;102098.53;5055521;28;20776;-58
2022/11/26 09:29:03;;;;;;;;;;;;;;;28.32;nan;102100.63;5055568;28;20036;-58
2022/11/26 09:31:30;;;;;;;;;;;;;;;28.44;nan;102095.03;5071837;28;20259;-58
2022/11/26 09:33:57;;;;;;;;;;;;;;;28.41;nan;102092.94;5073761;28;19920;-58
2022/11/26 09:36:23;;;;;;;;;;;;;;;28.39;nan;102088.88;5065723;28;20001;-57
2022/11/26 09:38:53;;;;;;;;;;;;;;;28.13;nan;102092.03;5073306;28;19916;-57
2022/11/26 09:41:25;;;;;;;;;;;;;;;28.18;nan;102087.00;5073607;28;20366;-57
2022/11/26 09:44:00;;;;;;;;;;;;;;;28.35;nan;102074.75;5057905;28;19921;-57
2022/11/26 09:46:36;;;;;;;;;;;;;;;27.92;nan;102076.19;5073574;28;20404;-57
2022/11/26 09:49:03;;;;;;;;;;;;;;;27.63;nan;102070.84;5073311;28;19956;-57
2022/11/26 09:51:30;;;;;;;;;;;;;;;27.65;nan;102074.94;5079310;28;19920;-57
2022/11/26 09:53:56;;;;;;;;;;;;;;;27.90;nan;102067.34;5078205;28;20396;-57
2022/11/26 09:56:24;;;;;;;;;;;;;;;27.83;nan;102067.13;5084781;28;19924;-57
2022/11/26 09:59:00;;;;;;;;;;;;;;;27.61;nan;102059.97;5085794;28;19916;-57
2022/11/26 10:01:27;;;;;;;;;;;;;;;27.30;nan;102063.34;5076860;28;20019;-57
2022/11/26 10:03:53;;;;;;;;;;;;;;;27.38;nan;102064.38;5088540;28;19924;-57
2022/11/26 10:06:52;;;;;;;;;;;;;;;27.72;nan;102052.00;5081504;28;19989;-57
2022/11/26 10:09:31;;;;;;;;;;;;;;;28.04;nan;102052.22;5053942;28;19928;-58
2022/11/26 10:12:01;;;;;;;;;;;;;;;27.85;nan;102050.84;5078484;28;19920;-58
2022/11/26 10:14:31;;;;;;;;;;;;;;;27.74;nan;102054.44;5083941;28;19927;-58
2022/11/26 10:17:06;;;;;;;;;;;;;;;27.86;nan;102048.84;5086664;28;20361;-58
2022/11/26 10:19:48;;;;;;;;;;;;;;;27.85;nan;102052.81;5076493;28;20413;-58
2022/11/26 10:22:32;;;;;;;;;;;;;;;27.79;nan;102046.63;5085642;28;19999;-58
2022/11/26 10:25:00;;;;;;;;;;;;;;;27.77;nan;102048.97;5086742;28;19924;-57
2022/11/26 10:27:29;;;;;;;;;;;;;;;27.81;nan;102047.09;5076562;28;19916;-58
2022/11/26 10:29:58;;;;;;;;;;;;;;;27.94;nan;102039.53;5088219;28;20433;-57
2022/11/26 10:32:35;;;;;;;;;;;;;;;27.82;nan;102051.50;5081964;28;19917;-58
2022/11/26 10:35:02;;;;;;;;;;;;;;;27.71;nan;102044.78;5078570;28;20006;-58
2022/11/26 10:37:28;;;;;;;;;;;;;;;27.73;nan;102039.66;5089530;28;19923;-57
2022/11/26 10:39:56;;;;;;;;;;;;;;;27.72;nan;102035.25;5077755;28;19924;-58
2022/11/26 10:42:23;;;;;;;;;;;;;;;27.88;nan;102029.75;5084157;28;20011;-57
2022/11/26 10:44:50;;;;;;;;;;;;;;;27.74;nan;102034.88;5085134;28;19927;-57
2022/11/26 10:47:22;;;;;;;;;;;;;;;27.84;nan;102037.22;5076445;28;19923;-58
2022/11/26 10:49:49;;;;;;;;;;;;;;;27.72;nan;102035.25;5060466;28;19916;-57
2022/11/26 10:52:16;;;;;;;;;;;;;;;27.50;nan;102030.09;5083762;28;20268;-58
2022/11/26 10:54:44;;;;;;;;;;;;;;;27.60;nan;102040.78;5084152;28;20495;-57
2022/11/26 10:57:17;;;;;;;;;;;;;;;27.78;nan;102027.44;5091905;28;19955;-58
2022/11/26 10:59:43;;;;;;;;;;;;;;;27.88;nan;102030.56;5076139;28;20305;-57
2022/11/26 11:02:18;;;;;;;;;;;;;;;27.78;nan;102033.81;5085787;28;20383;-58
2022/11/26 11:04:47;;;;;;;;;;;;;;;27.69;nan;102025.59;5080934;28;19920;-58
2022/11/26 11:07:36;;;;;;;;;;;;;;;27.77;nan;102032.19;5091928;28;19920;-57
2022/11/26 11:10:11;;;;;;;;;;;;;;;27.74;nan;102026.50;5073024;28;19936;-58
2022/11/26 11:12:39;;;;;;;;;;;;;;;27.75;nan;102026.16;5076375;28;20379;-57
2022/11/26 11:15:17;;;;;;;;;;;;;;;27.76;nan;102024.16;5091290;28;19912;-57
2022/11/26 11:17:44;;;;;;;;;;;;;;;27.71;nan;102028.03;5079907;28;19924;-58
2022/11/26 11:20:16;;;;;;;;;;;;;;;27.77;nan;102032.19;5089455;28;19917;-58
2022/11/26 11:22:43;;;;;;;;;;;;;;;27.82;nan;102023.56;5087831;28;19920;-58
2022/11/26 11:25:22;;;;;;;;;;;;;;;27.73;nan;102022.09;5081045;28;20014;-58
2022/11/26 11:27:49;;;;;;;;;;;;;;;27.74;nan;102016.16;5064113;28;19955;-58
2022/11/26 11:30:25;;;;;;;;;;;;;;;27.49;nan;102015.31;5088533;28;19916;-58
2022/11/26 11:32:55;;;;;;;;;;;;;;;27.32;nan;102019.13;5088390;28;19920;-58
2022/11/26 11:35:25;;;;;;;;;;;;;;;26.79;nan;102014.47;5076565;28;19924;-58
2022/11/26 11:37:53;;;;;;;;;;;;;;;26.56;nan;102005.63;5089937;28;19978;-57
2022/11/26 11:40:24;;;;;;;;;;;;;;;26.41;nan;102003.50;5082561;28;20294;-58
2022/11/26 11:42:52;;;;;;;;;;;;;;;26.69;nan;102003.72;5080357;28;19924;-57
2022/11/26 11:45:32;;;;;;;;;;;;;;;26.57;nan;101996.16;5075108;28;20011;-57
2022/11/26 11:48:05;;;;;;;;;;;;;;;27.13;nan;101996.56;5065097;28;20314;-57
2022/11/26 11:50:33;;;;;;;;;;;;;;;27.39;nan;102005.41;5086091;28;20375;-58
2022/11/26 11:53:08;;;;;;;;;;;;;;;27.19;nan;101995.16;5075407;28;19964;-57
2022/11/26 11:55:47;;;;;;;;;;;;;;;27.35;nan;101990.53;5068486;28;19920;-58
2022/11/26 11:58:30;;;;;;;;;;;;;;;27.37;nan;101991.00;5075629;28;20386;-57
2022/11/26 12:01:19;;;;;;;;;;;;;;;27.36;nan;101997.72;5075416;28;19925;-57
2022/11/26 12:03:52;;;;;;;;;;;;;;;27.23;nan;101989.69;5058568;28;19920;-57
2022/11/26 12:06:21;;;;;;;;;;;;;;;27.29;nan;101991.06;5067349;28;20329;-57
2022/11/26 12:09:12;;;;;;;;;;;;;;;27.32;nan;101988.44;5075255;28;20298;-57
2022/11/26 12:11:44;;;;;;;;;;;;;;;27.28;nan;101981.88;5075522;28;20049;-57
2022/11/26 12:14:11;;;;;;;;;;;;;;;27.21;nan;101986.44;5075532;28;20290;-57
2022/11/26 12:16:39;;;;;;;;;;;;;;;27.25;nan;101984.56;5075010;28;19917;-57
2022/11/26 12:19:11;;;;;;;;;;;;;;;27.31;nan;101988.78;5075266;28;20379;-57
2022/11/26 12:21:47;;;;;;;;;;;;;;;27.23;nan;101979.34;5075278;28;20370;-57
2022/11/26 12:24:19;;;;;;;;;;;;;;;27.28;nan;101979.09;5075203;28;19972;-57
2022/11/26 12:26:48;;;;;;;;;;;;;;;27.38;nan;101977.84;5075060;28;19927;-57
2022/11/26 12:29:32;;;;;;;;;;;;;;;27.39;nan;101985.88;5075180;28;19922;-57
2022/11/26 12:32:08;;;;;;;;;;;;;;;27.32;nan;101979.25;5060606;28;20015;-57
2022/11/26 12:34:38;;;;;;;;;;;;;;;27.33;nan;101987.28;5073181;28;20016;-57
2022/11/26 12:37:06;;;;;;;;;;;;;;;27.25;nan;101979.81;5069452;28;19920;-57
2022/11/26 12:39:32;;;;;;;;;;;;;;;27.31;nan;101980.41;5074925;28;20371;-57
2022/11/26 12:42:03;;;;;;;;;;;;;;;27.23;nan;101984.09;5074824;28;19927;-57
2022/11/26 12:44:38;;;;;;;;;;;;;;;27.14;nan;101983.41;5074819;28;19924;-57
2022/11/26 12:47:13;;;;;;;;;;;;;;;27.05;nan;101994.66;5074716;28;19928;-57
2022/11/26 12:49:59;;;;;;;;;;;;;;;27.06;nan;101996.28;5074697;28;19935;-57
2022/11/26 12:52:31;;;;;;;;;;;;;;;26.96;nan;101979.97;5080566;28;19927;-57
2022/11/26 12:55:03;;;;;;;;;;;;;;;27.10;nan;101966.53;5088206;28;19926;-58
2022/11/26 12:57:43;;;;;;;;;;;;;;;27.22;nan;101963.75;5078052;28;19952;-58
2022/11/26 13:00:12;;;;;;;;;;;;;;;27.00;nan;101970.59;5087816;28;19927;-57
2022/11/26 13:02:42;;;;;;;;;;;;;;;26.89;nan;101968.56;5085483;28;20382;-57
2022/11/26 13:05:16;;;;;;;;;;;;;;;26.96;nan;101974.41;5079029;28;20015;-58